Time;durP1;ratioP1;P1;durP2;ratioP2;P2;SDS_P1;SDS_P2;PMS_P1;PMS_P2;Temp;Humidity;BMP_temperature;BMP_pressure;BME280_temperature;BME280_humidity;BME280_pressure;Samples;Min_cycle;Max_cycle;Signal;HPM_P1;HPM_P2
2021/09/10 00:00:05;;;;;;;9.47;8.60;;;20.30;99.90;;;;;;4972679;28;20219;-63
2021/09/10 00:02:31;;;;;;;8.40;7.70;;;20.20;99.90;;;;;;4973007;28;20333;-63
2021/09/10 00:04:56;;;;;;;10.23;9.30;;;20.20;99.90;;;;;;4973102;28;20481;-63
2021/09/10 00:07:22;;;;;;;9.00;8.30;;;20.20;99.90;;;;;;4972898;28;20636;-63
2021/09/10 00:09:47;;;;;;;8.97;8.17;;;20.20;99.90;;;;;;4972658;28;20267;-63
2021/09/10 00:12:13;;;;;;;9.70;8.80;;;20.10;99.90;;;;;;4972957;28;20639;-63
2021/09/10 00:14:38;;;;;;;9.77;9.07;;;20.10;99.90;;;;;;4972937;28;20207;-63
2021/09/10 00:17:04;;;;;;;11.43;10.23;;;20.10;99.90;;;;;;4972930;28;20176;-63
2021/09/10 00:19:30;;;;;;;10.10;8.97;;;20.10;99.90;;;;;;4972547;28;20212;-63
2021/09/10 00:21:55;;;;;;;10.33;9.53;;;20.10;99.90;;;;;;4972833;28;20200;-63
2021/09/10 00:24:21;;;;;;;10.60;8.57;;;20.10;99.90;;;;;;4972686;28;20568;-64
2021/09/10 00:26:46;;;;;;;9.80;9.00;;;20.20;99.90;;;;;;4972732;28;20188;-64
2021/09/10 00:29:12;;;;;;;10.60;9.60;;;20.20;99.90;;;;;;4972317;28;20199;-63
2021/09/10 00:31:37;;;;;;;10.10;9.30;;;20.20;99.90;;;;;;4972833;28;20175;-59
2021/09/10 00:34:03;;;;;;;8.63;8.03;;;20.20;99.90;;;;;;4972771;28;20219;-63
2021/09/10 00:36:28;;;;;;;8.77;8.17;;;20.20;99.90;;;;;;4972736;28;20661;-63
2021/09/10 00:38:54;;;;;;;9.57;8.77;;;20.20;99.90;;;;;;4973059;28;20658;-64
2021/09/10 00:41:19;;;;;;;9.33;8.53;;;20.20;99.90;;;;;;4976344;28;20180;-64
2021/09/10 00:43:45;;;;;;;10.50;9.43;;;20.10;99.90;;;;;;4976182;28;20584;-63
2021/09/10 00:46:10;;;;;;;10.63;9.83;;;20.10;99.90;;;;;;4976301;28;20169;-63
2021/09/10 00:48:38;;;;;;;10.07;9.27;;;20.10;99.90;;;;;;4975463;28;20842;-64
2021/09/10 00:51:04;;;;;;;10.37;9.47;;;20.00;99.90;;;;;;4976179;28;20168;-63
2021/09/10 00:53:30;;;;;;;10.00;9.20;;;20.00;99.90;;;;;;4976033;28;20913;-63
2021/09/10 00:55:55;;;;;;;10.70;9.90;;;20.00;99.90;;;;;;4976119;28;20177;-63
2021/09/10 00:58:21;;;;;;;10.00;9.17;;;20.00;99.90;;;;;;4975807;28;20254;-64
2021/09/10 01:00:47;;;;;;;9.47;8.67;;;20.00;99.90;;;;;;4975795;28;20204;-64
2021/09/10 01:03:12;;;;;;;11.53;10.43;;;20.10;99.90;;;;;;4976239;28;20198;-64
2021/09/10 01:05:41;;;;;;;10.37;9.57;;;20.20;99.90;;;;;;4975946;28;20230;-64
2021/09/10 01:08:09;;;;;;;9.73;8.90;;;20.10;99.90;;;;;;4975756;28;20468;-64
2021/09/10 01:10:35;;;;;;;10.50;9.57;;;20.10;99.90;;;;;;4975254;28;20771;-64
2021/09/10 01:13:02;;;;;;;9.60;8.90;;;20.10;99.90;;;;;;4975852;28;20412;-64
2021/09/10 01:15:28;;;;;;;11.07;10.17;;;20.10;99.90;;;;;;4975367;28;20478;-64
2021/09/10 01:17:54;;;;;;;10.20;9.37;;;20.10;99.90;;;;;;4975789;28;20455;-63
2021/09/10 01:20:20;;;;;;;9.13;8.43;;;20.00;99.90;;;;;;4975386;28;20721;-64
2021/09/10 01:22:45;;;;;;;10.10;9.13;;;19.90;99.90;;;;;;4975633;28;20458;-63
2021/09/10 01:25:13;;;;;;;10.40;9.60;;;19.80;99.90;;;;;;4975496;28;20180;-63
2021/09/10 01:27:48;;;;;;;10.60;9.30;;;19.70;99.90;;;;;;4975401;28;20566;-64
2021/09/10 01:30:17;;;;;;;10.93;10.10;;;19.70;99.90;;;;;;4975201;28;20777;-64
2021/09/10 01:32:42;;;;;;;11.33;10.33;;;19.60;99.90;;;;;;4975550;28;20917;-63
2021/09/10 01:35:09;;;;;;;11.60;9.30;;;19.50;99.90;;;;;;4974206;28;20436;-63
2021/09/10 01:37:35;;;;;;;10.70;9.80;;;19.50;99.90;;;;;;4975038;28;20176;-63
2021/09/10 01:40:02;;;;;;;11.03;9.90;;;19.50;99.90;;;;;;4974977;28;20819;-63
2021/09/10 01:42:28;;;;;;;11.30;10.30;;;19.50;99.90;;;;;;4975139;28;20859;-63
2021/09/10 01:44:53;;;;;;;10.87;9.83;;;19.50;99.90;;;;;;4975111;28;20467;-64
2021/09/10 01:47:19;;;;;;;10.80;9.90;;;19.60;99.90;;;;;;4974890;28;20203;-63
2021/09/10 01:49:44;;;;;;;10.17;9.30;;;19.60;99.90;;;;;;4974638;28;20624;-63
2021/09/10 01:52:10;;;;;;;10.07;9.27;;;19.50;99.90;;;;;;4975009;28;20239;-64
2021/09/10 01:54:36;;;;;;;10.77;9.97;;;19.60;99.90;;;;;;4975030;28;20263;-64
2021/09/10 01:57:02;;;;;;;9.90;9.10;;;19.60;99.90;;;;;;4975184;28;20215;-63
2021/09/10 01:59:27;;;;;;;10.63;9.83;;;19.70;99.90;;;;;;4974728;28;20636;-63
2021/09/10 02:01:53;;;;;;;11.27;10.00;;;19.70;99.90;;;;;;4974878;28;20666;-64
2021/09/10 02:04:18;;;;;;;10.27;9.47;;;19.70;99.90;;;;;;4974932;28;20227;-64
2021/09/10 02:06:44;;;;;;;11.30;10.40;;;19.80;99.90;;;;;;4974879;28;20164;-63
2021/09/10 02:09:10;;;;;;;9.63;8.87;;;19.80;99.90;;;;;;4974393;28;20758;-63
2021/09/10 02:11:35;;;;;;;11.63;10.53;;;19.70;99.90;;;;;;4975049;28;20168;-63
2021/09/10 02:14:01;;;;;;;10.97;9.97;;;19.70;99.90;;;;;;4974673;28;20168;-64
2021/09/10 02:16:26;;;;;;;11.20;10.40;;;19.80;99.90;;;;;;4959934;28;20181;-64
2021/09/10 02:18:52;;;;;;;11.90;10.67;;;19.70;99.90;;;;;;4954961;28;20217;-64
2021/09/10 02:21:17;;;;;;;11.50;10.70;;;19.60;99.90;;;;;;4955283;28;20646;-63
2021/09/10 02:23:43;;;;;;;11.20;10.40;;;19.40;99.90;;;;;;4960229;28;20183;-64
2021/09/10 02:26:08;;;;;;;11.50;10.60;;;19.30;99.90;;;;;;4974425;28;20176;-64
2021/09/10 02:28:34;;;;;;;12.30;11.00;;;19.20;99.90;;;;;;4973915;28;20204;-63
2021/09/10 02:30:59;;;;;;;11.63;10.50;;;19.20;99.90;;;;;;4974271;28;20172;-63
2021/09/10 02:33:27;;;;;;;10.30;9.60;;;19.20;99.90;;;;;;4974340;28;20567;-63
2021/09/10 02:35:54;;;;;;;12.07;11.00;;;19.20;99.90;;;;;;4974322;28;20606;-64
2021/09/10 02:38:19;;;;;;;11.00;10.00;;;19.30;99.90;;;;;;4973522;28;20451;-63
2021/09/10 02:40:45;;;;;;;12.23;11.23;;;19.40;99.90;;;;;;4973973;28;21000;-64
2021/09/10 02:43:11;;;;;;;11.30;10.10;;;19.40;99.90;;;;;;4974171;28;20203;-63
2021/09/10 02:45:36;;;;;;;11.93;10.93;;;19.40;99.90;;;;;;4974060;28;20172;-63
2021/09/10 02:48:02;;;;;;;11.43;10.43;;;19.40;99.90;;;;;;4973888;28;20208;-63
2021/09/10 02:50:27;;;;;;;11.83;10.63;;;19.40;99.90;;;;;;4973721;28;20196;-63
2021/09/10 02:52:53;;;;;;;13.87;12.67;;;19.40;99.90;;;;;;4973689;28;20654;-63
2021/09/10 02:55:18;;;;;;;11.33;10.50;;;19.40;99.90;;;;;;4973885;28;20168;-64
2021/09/10 02:57:44;;;;;;;12.10;11.23;;;19.40;99.90;;;;;;4973941;28;20188;-63
2021/09/10 03:00:10;;;;;;;12.00;11.00;;;19.40;99.90;;;;;;4973397;28;20654;-63
2021/09/10 03:02:36;;;;;;;12.50;11.60;;;19.40;99.90;;;;;;4973708;28;20412;-63
2021/09/10 03:05:03;;;;;;;11.53;10.63;;;19.40;99.90;;;;;;4973578;28;20468;-63
2021/09/10 03:07:29;;;;;;;11.90;10.80;;;19.40;99.90;;;;;;4973582;28;20534;-63
2021/09/10 03:09:54;;;;;;;12.83;11.73;;;19.40;99.90;;;;;;4973359;28;20459;-63
2021/09/10 03:12:20;;;;;;;11.37;10.30;;;19.30;99.90;;;;;;4973621;28;20757;-63
2021/09/10 03:14:45;;;;;;;11.73;10.73;;;19.20;99.90;;;;;;4973660;28;20255;-63
2021/09/10 03:17:11;;;;;;;12.33;11.33;;;19.20;99.90;;;;;;4973539;28;20196;-63
2021/09/10 03:19:36;;;;;;;11.77;10.87;;;19.20;99.90;;;;;;4973004;28;20724;-63
2021/09/10 03:22:02;;;;;;;11.30;10.50;;;19.10;99.90;;;;;;4973278;28;20188;-63
2021/09/10 03:24:28;;;;;;;11.30;10.40;;;19.10;99.90;;;;;;4973575;28;20200;-63
2021/09/10 03:26:53;;;;;;;11.73;10.93;;;19.00;99.90;;;;;;4973295;28;20180;-63
2021/09/10 03:29:19;;;;;;;12.63;11.50;;;19.00;99.90;;;;;;4973124;28;20220;-63
2021/09/10 03:31:44;;;;;;;12.37;11.40;;;19.00;99.90;;;;;;4973302;28;20520;-63
2021/09/10 03:34:10;;;;;;;11.70;10.80;;;19.00;99.90;;;;;;4973367;28;20665;-63
2021/09/10 03:36:35;;;;;;;11.37;10.57;;;19.00;99.90;;;;;;4972879;28;20172;-63
2021/09/10 03:39:01;;;;;;;12.03;11.13;;;19.00;99.90;;;;;;4972928;28;20216;-63
2021/09/10 03:41:26;;;;;;;12.43;11.57;;;19.00;99.90;;;;;;4973123;28;20257;-63
2021/09/10 03:43:55;;;;;;;12.73;11.70;;;19.00;99.90;;;;;;4973028;28;20180;-63
2021/09/10 03:46:21;;;;;;;12.00;11.13;;;19.00;99.90;;;;;;4973225;28;20176;-63
2021/09/10 03:48:48;;;;;;;11.70;10.80;;;18.90;99.90;;;;;;4972527;28;20840;-63
2021/09/10 03:51:13;;;;;;;11.97;10.87;;;18.80;99.90;;;;;;4973104;28;20423;-63
2021/09/10 03:53:39;;;;;;;12.90;11.90;;;18.80;99.90;;;;;;4973128;28;20478;-63
2021/09/10 03:56:04;;;;;;;13.50;12.50;;;18.90;99.90;;;;;;4973155;28;20196;-64
2021/09/10 03:58:30;;;;;;;12.73;11.60;;;18.80;99.90;;;;;;4972409;28;20204;-64
2021/09/10 04:00:55;;;;;;;12.67;11.57;;;18.80;99.90;;;;;;4972793;28;20210;-63
2021/09/10 04:03:21;;;;;;;11.77;10.67;;;18.80;99.90;;;;;;4968354;28;20204;-64
2021/09/10 04:05:47;;;;;;;13.90;12.73;;;18.80;99.90;;;;;;4967021;28;20552;-64
2021/09/10 04:08:13;;;;;;;13.00;10.83;;;18.80;99.90;;;;;;4972753;28;20630;-64
2021/09/10 04:10:39;;;;;;;13.50;12.30;;;18.70;99.90;;;;;;4972594;28;20506;-63
2021/09/10 04:13:05;;;;;;;12.60;11.60;;;18.60;99.90;;;;;;4973030;28;20515;-63
2021/09/10 04:15:30;;;;;;;13.77;12.53;;;18.50;99.90;;;;;;4976032;28;20550;-63
2021/09/10 04:17:56;;;;;;;12.70;11.73;;;18.50;99.90;;;;;;4976322;28;20187;-63
2021/09/10 04:20:21;;;;;;;12.83;11.73;;;18.50;99.90;;;;;;4977007;28;20605;-63
2021/09/10 04:22:47;;;;;;;11.80;10.87;;;18.50;99.90;;;;;;4976101;28;20181;-63
2021/09/10 04:25:12;;;;;;;12.43;11.33;;;18.40;99.90;;;;;;4976584;28;20543;-63
2021/09/10 04:27:38;;;;;;;13.60;12.60;;;18.40;99.90;;;;;;4976375;28;20203;-63
2021/09/10 04:30:08;;;;;;;13.77;12.57;;;18.30;99.90;;;;;;4975924;28;20192;-63
2021/09/10 04:32:35;;;;;;;14.80;13.67;;;18.30;99.90;;;;;;4976512;28;20416;-63
2021/09/10 04:35:00;;;;;;;13.50;12.20;;;18.30;99.90;;;;;;4976001;28;20416;-63
2021/09/10 04:37:26;;;;;;;13.47;12.47;;;18.30;99.90;;;;;;4976657;28;20485;-63
2021/09/10 04:39:52;;;;;;;14.77;13.37;;;18.20;99.90;;;;;;4975859;28;20535;-63
2021/09/10 04:42:17;;;;;;;13.73;12.63;;;18.20;99.90;;;;;;4976187;28;20223;-63
2021/09/10 04:44:43;;;;;;;13.83;12.60;;;18.20;99.90;;;;;;4976133;28;20185;-63
2021/09/10 04:47:08;;;;;;;14.23;12.90;;;18.20;99.90;;;;;;4975779;28;20192;-63
2021/09/10 04:49:34;;;;;;;13.67;12.57;;;18.20;99.90;;;;;;4975886;28;20566;-64
2021/09/10 04:52:00;;;;;;;14.40;13.20;;;18.20;99.90;;;;;;4975872;28;20175;-63
2021/09/10 04:54:26;;;;;;;14.13;12.90;;;18.10;99.90;;;;;;4975937;28;20179;-63
2021/09/10 04:56:51;;;;;;;13.00;12.00;;;18.00;99.90;;;;;;4975866;28;20248;-63
2021/09/10 04:59:17;;;;;;;13.47;12.37;;;18.00;99.90;;;;;;4975605;28;20451;-63
2021/09/10 05:01:44;;;;;;;13.57;12.17;;;18.00;99.90;;;;;;4975525;28;20188;-63
2021/09/10 05:04:09;;;;;;;12.93;11.50;;;18.00;99.90;;;;;;4975943;28;20427;-63
2021/09/10 05:06:35;;;;;;;13.53;12.27;;;18.00;99.90;;;;;;4975967;28;20427;-63
2021/09/10 05:09:00;;;;;;;13.77;12.67;;;18.00;99.90;;;;;;4975341;28;20610;-63
2021/09/10 05:11:26;;;;;;;13.80;12.57;;;18.00;99.90;;;;;;4975804;28;20177;-63
2021/09/10 05:13:52;;;;;;;15.20;13.80;;;18.10;99.90;;;;;;4976147;28;20226;-63
2021/09/10 05:16:17;;;;;;;14.40;13.10;;;18.20;99.90;;;;;;4974622;28;20177;-63
2021/09/10 05:18:43;;;;;;;12.80;11.80;;;18.20;99.90;;;;;;4974558;28;20211;-63
2021/09/10 05:21:08;;;;;;;13.20;12.20;;;18.10;99.90;;;;;;4975691;28;20184;-63
2021/09/10 05:23:34;;;;;;;13.47;12.47;;;18.20;99.90;;;;;;4975068;28;20180;-63
2021/09/10 05:25:59;;;;;;;15.50;13.97;;;18.30;99.90;;;;;;4975009;28;20188;-63
2021/09/10 05:28:25;;;;;;;14.13;13.03;;;18.40;99.90;;;;;;4974880;28;20220;-63
2021/09/10 05:30:51;;;;;;;14.27;12.73;;;18.40;99.90;;;;;;4975455;28;20203;-63
2021/09/10 05:33:16;;;;;;;14.37;13.00;;;18.40;99.90;;;;;;4975077;28;20176;-63
2021/09/10 05:35:42;;;;;;;16.80;13.23;;;18.40;99.90;;;;;;4970696;28;20459;-64
2021/09/10 05:38:08;;;;;;;14.37;13.07;;;18.50;99.90;;;;;;4974948;28;20205;-63
2021/09/10 05:40:34;;;;;;;15.83;12.37;;;18.60;99.90;;;;;;4974951;28;20450;-64
2021/09/10 05:43:00;;;;;;;15.70;13.63;;;18.60;99.90;;;;;;4974900;28;20191;-62
2021/09/10 05:45:25;;;;;;;14.43;13.10;;;18.70;99.90;;;;;;4974397;28;20444;-62
2021/09/10 05:47:51;;;;;;;14.60;13.10;;;18.80;99.90;;;;;;4975441;28;20223;-63
2021/09/10 05:50:17;;;;;;;14.87;13.53;;;19.00;99.90;;;;;;4975142;28;20176;-63
2021/09/10 05:52:42;;;;;;;13.53;12.43;;;19.10;99.90;;;;;;4975035;28;20187;-64
2021/09/10 05:55:08;;;;;;;14.70;13.50;;;19.30;99.90;;;;;;4974911;28;20180;-64
2021/09/10 05:57:34;;;;;;;18.27;16.67;;;19.30;99.90;;;;;;4974509;28;20179;-63
2021/09/10 05:59:59;;;;;;;13.83;12.40;;;19.40;99.90;;;;;;4974111;28;20227;-63
2021/09/10 06:02:25;;;;;;;13.63;12.30;;;19.40;99.90;;;;;;4974099;28;20666;-63
2021/09/10 06:04:50;;;;;;;14.63;13.10;;;19.30;99.90;;;;;;4974526;28;20719;-63
2021/09/10 06:07:16;;;;;;;13.60;12.50;;;19.30;99.90;;;;;;4974073;28;20255;-64
2021/09/10 06:09:41;;;;;;;14.00;12.70;;;19.40;99.90;;;;;;4973205;28;20267;-63
2021/09/10 06:12:07;;;;;;;13.87;12.33;;;19.50;99.90;;;;;;4974223;28;20203;-64
2021/09/10 06:14:33;;;;;;;13.80;12.37;;;19.50;99.90;;;;;;4974633;28;20226;-64
2021/09/10 06:16:59;;;;;;;12.60;11.60;;;19.50;99.90;;;;;;4974618;28;20214;-63
2021/09/10 06:19:24;;;;;;;12.10;10.90;;;19.50;99.90;;;;;;4974154;28;20554;-63
2021/09/10 06:21:50;;;;;;;13.90;12.60;;;19.50;99.90;;;;;;4973222;28;20184;-63
2021/09/10 06:24:15;;;;;;;12.83;11.63;;;19.50;99.90;;;;;;4973999;28;20179;-63
2021/09/10 06:26:41;;;;;;;12.40;11.20;;;19.50;99.90;;;;;;4974511;28;20172;-63
2021/09/10 06:29:06;;;;;;;14.13;12.77;;;19.50;99.90;;;;;;4974063;28;20231;-63
2021/09/10 06:31:32;;;;;;;15.50;11.37;;;19.70;99.90;;;;;;4974728;28;20303;-64
2021/09/10 06:33:58;;;;;;;12.70;11.60;;;20.00;99.90;;;;;;4974426;28;20247;-64
2021/09/10 06:36:23;;;;;;;11.50;10.60;;;20.20;99.90;;;;;;4973423;28;20164;-63
2021/09/10 06:38:49;;;;;;;13.70;12.50;;;20.40;99.90;;;;;;4973889;28;20263;-64
2021/09/10 06:41:14;;;;;;;13.43;12.43;;;20.60;99.90;;;;;;4974250;28;20168;-64
2021/09/10 06:43:40;;;;;;;12.33;11.30;;;20.70;99.90;;;;;;4974236;28;20250;-63
2021/09/10 06:46:06;;;;;;;13.03;11.07;;;20.90;99.90;;;;;;4974095;28;20247;-63
2021/09/10 06:48:32;;;;;;;11.43;10.17;;;21.00;99.90;;;;;;4973628;28;20212;-64
2021/09/10 06:50:58;;;;;;;11.87;10.77;;;21.20;99.90;;;;;;4973934;28;20423;-63
2021/09/10 06:53:24;;;;;;;13.83;12.53;;;21.30;99.90;;;;;;4973988;28;20177;-63
2021/09/10 06:55:49;;;;;;;13.23;12.13;;;21.70;99.90;;;;;;4973991;28;20470;-63
2021/09/10 06:58:15;;;;;;;12.53;11.43;;;22.10;99.90;;;;;;4973795;28;20200;-64
2021/09/10 07:00:41;;;;;;;12.80;11.47;;;22.40;99.90;;;;;;4973652;28;20180;-64
2021/09/10 07:03:06;;;;;;;12.33;11.13;;;22.80;99.90;;;;;;4973863;28;20191;-64
2021/09/10 07:05:32;;;;;;;11.17;10.27;;;22.90;99.90;;;;;;4973741;28;20693;-64
2021/09/10 07:07:57;;;;;;;10.60;9.80;;;22.90;99.90;;;;;;4973772;28;20239;-64
2021/09/10 07:10:23;;;;;;;13.13;11.30;;;22.90;99.90;;;;;;4973615;28;20227;-64
2021/09/10 07:12:50;;;;;;;11.87;10.97;;;22.80;99.90;;;;;;4973741;28;20175;-63
2021/09/10 07:15:16;;;;;;;10.53;9.73;;;22.80;99.90;;;;;;4973652;28;20412;-64
2021/09/10 07:17:41;;;;;;;10.83;9.93;;;23.10;99.90;;;;;;4973627;28;20499;-64
2021/09/10 07:20:08;;;;;;;13.20;12.00;;;23.60;99.90;;;;;;4972975;28;20471;-64
2021/09/10 07:22:33;;;;;;;9.70;8.80;;;24.00;99.90;;;;;;4973471;28;20180;-64
2021/09/10 07:24:59;;;;;;;10.20;9.23;;;23.60;99.90;;;;;;4973224;28;20462;-64
2021/09/10 07:27:24;;;;;;;10.50;9.60;;;23.40;99.90;;;;;;4973755;28;20207;-64
2021/09/10 07:29:50;;;;;;;10.40;9.40;;;23.30;99.90;;;;;;4973079;28;20243;-64
2021/09/10 07:32:15;;;;;;;9.87;9.07;;;23.50;99.90;;;;;;4973308;28;20544;-64
2021/09/10 07:34:41;;;;;;;10.10;9.20;;;23.80;99.90;;;;;;4973339;28;20176;-65
2021/09/10 07:37:06;;;;;;;9.43;8.73;;;24.20;99.90;;;;;;4973266;28;20232;-64
2021/09/10 07:39:32;;;;;;;11.27;10.17;;;24.50;99.90;;;;;;4973002;28;20558;-64
2021/09/10 07:41:58;;;;;;;10.63;9.40;;;24.70;99.90;;;;;;4973330;28;20188;-64
2021/09/10 07:44:24;;;;;;;10.87;9.87;;;25.00;99.90;;;;;;4973266;28;20239;-64
2021/09/10 07:46:53;;;;;;;11.13;9.27;;;25.10;99.90;;;;;;4973160;28;20199;-64
2021/09/10 07:49:19;;;;;;;10.13;9.23;;;25.00;99.90;;;;;;4972528;28;20207;-63
2021/09/10 07:51:45;;;;;;;9.93;9.13;;;25.00;99.90;;;;;;4973362;28;20526;-64
2021/09/10 07:54:11;;;;;;;10.60;9.80;;;25.00;99.90;;;;;;4973191;28;20506;-64
2021/09/10 07:56:37;;;;;;;9.37;8.57;;;25.00;99.90;;;;;;4973205;28;20238;-63
2021/09/10 07:59:02;;;;;;;10.03;9.10;;;25.00;99.90;;;;;;4972797;28;20196;-64
2021/09/10 08:01:28;;;;;;;9.93;9.23;;;25.10;99.90;;;;;;4972967;28;20172;-64
2021/09/10 08:03:53;;;;;;;10.90;9.80;;;25.30;99.90;;;;;;4973049;28;20183;-64
2021/09/10 08:06:19;;;;;;;10.13;9.30;;;24.90;99.90;;;;;;4973012;28;20234;-63
2021/09/10 08:08:44;;;;;;;9.37;8.57;;;24.80;99.90;;;;;;4973000;28;20204;-64
2021/09/10 08:11:10;;;;;;;9.87;8.87;;;24.60;99.90;;;;;;4973081;28;20627;-63
2021/09/10 08:13:36;;;;;;;9.80;8.50;;;24.70;99.90;;;;;;4973007;28;20176;-64
2021/09/10 08:16:01;;;;;;;10.27;9.07;;;24.70;99.90;;;;;;4972949;28;20995;-64
2021/09/10 08:18:27;;;;;;;10.00;9.20;;;24.90;99.90;;;;;;4972390;28;20673;-63
2021/09/10 08:20:56;;;;;;;8.87;8.27;;;24.90;99.90;;;;;;4972990;28;20552;-63
2021/09/10 08:23:22;;;;;;;10.20;9.30;;;24.60;99.90;;;;;;4972905;28;20227;-64
2021/09/10 08:25:48;;;;;;;10.83;9.93;;;24.40;99.90;;;;;;4972284;28;20428;-64
2021/09/10 08:28:13;;;;;;;9.93;9.13;;;24.40;99.90;;;;;;4972532;28;20475;-64
2021/09/10 08:30:39;;;;;;;10.40;9.60;;;24.40;99.90;;;;;;4972658;28;20580;-64
2021/09/10 08:33:11;;;;;;;10.30;9.20;;;24.60;99.90;;;;;;4972783;28;20650;-64
2021/09/10 08:35:37;;;;;;;9.70;8.77;;;24.60;99.90;;;;;;4972866;28;20531;-63
2021/09/10 08:38:03;;;;;;;8.70;8.00;;;24.60;99.90;;;;;;4972656;28;20563;-64
2021/09/10 08:40:29;;;;;;;9.37;8.77;;;24.80;99.90;;;;;;4972522;28;20176;-64
2021/09/10 08:42:55;;;;;;;9.37;8.67;;;25.00;99.90;;;;;;4972699;28;20918;-64
2021/09/10 08:45:27;;;;;;;12.87;11.57;;;25.20;99.90;;;;;;4972934;28;20184;-64
2021/09/10 08:47:54;;;;;;;10.60;9.60;;;25.30;99.90;;;;;;4972795;28;20702;-64
2021/09/10 08:50:19;;;;;;;9.83;9.00;;;25.50;99.90;;;;;;4972386;28;20408;-64
2021/09/10 08:52:45;;;;;;;9.80;9.10;;;25.80;99.90;;;;;;4972580;28;20784;-64
2021/09/10 08:55:13;;;;;;;10.17;9.43;;;26.10;99.90;;;;;;4972600;28;20172;-65
2021/09/10 08:57:45;;;;;;;9.20;8.50;;;26.70;99.90;;;;;;4972630;28;20187;-64
2021/09/10 09:00:11;;;;;;;10.30;9.30;;;26.80;99.40;;;;;;4973285;28;20431;-65
2021/09/10 09:02:37;;;;;;;9.87;8.93;;;27.60;98.90;;;;;;4976055;28;20448;-64
2021/09/10 09:05:03;;;;;;;9.33;8.43;;;28.20;97.40;;;;;;4975991;28;20455;-64
2021/09/10 09:07:28;;;;;;;7.60;7.10;;;28.50;96.10;;;;;;4975888;28;20196;-64
2021/09/10 09:09:58;;;;;;;8.87;7.90;;;29.30;95.20;;;;;;4975511;28;20682;-64
2021/09/10 09:12:30;;;;;;;9.37;8.60;;;30.00;93.70;;;;;;4975860;28;20192;-64
2021/09/10 09:15:00;;;;;;;10.47;9.60;;;30.10;92.90;;;;;;4975887;28;20430;-64
2021/09/10 09:17:33;;;;;;;12.03;10.30;;;30.20;91.70;;;;;;4975749;28;20427;-64
2021/09/10 09:20:23;;;;;;;9.67;8.67;;;29.60;92.10;;;;;;4973961;28;20474;-64
2021/09/10 09:23:11;;;;;;;10.10;9.30;;;29.90;91.90;;;;;;4975692;28;20486;-64
2021/09/10 09:25:44;;;;;;;9.37;8.67;;;29.80;91.70;;;;;;4975170;28;20427;-64
2021/09/10 09:28:18;;;;;;;10.17;9.10;;;29.70;91.20;;;;;;4975437;28;20463;-63
2021/09/10 09:30:46;;;;;;;10.20;9.27;;;28.60;92.10;;;;;;4975389;28;20430;-64
2021/09/10 09:33:14;;;;;;;9.63;8.83;;;28.00;92.90;;;;;;4975495;28;20422;-63
2021/09/10 09:35:41;;;;;;;9.90;9.10;;;27.90;92.90;;;;;;4975453;28;20430;-63
2021/09/10 09:38:21;;;;;;;9.47;8.77;;;27.70;93.50;;;;;;4975308;28;20467;-63
2021/09/10 09:40:52;;;;;;;10.17;9.20;;;28.00;93.50;;;;;;4975172;28;20427;-64
2021/09/10 09:43:28;;;;;;;10.20;9.23;;;28.00;93.00;;;;;;4975361;28;20428;-64
2021/09/10 09:45:54;;;;;;;10.83;10.03;;;28.00;93.20;;;;;;4975261;28;20442;-64
2021/09/10 09:48:23;;;;;;;9.60;8.80;;;27.70;93.40;;;;;;4974934;28;20467;-64
2021/09/10 09:50:50;;;;;;;10.60;9.00;;;27.40;93.80;;;;;;4975141;28;20528;-64
2021/09/10 09:53:16;;;;;;;10.40;9.50;;;27.60;93.70;;;;;;4975060;28;20441;-64
2021/09/10 09:55:44;;;;;;;10.57;9.60;;;27.90;92.70;;;;;;4975140;28;20428;-64
2021/09/10 09:58:10;;;;;;;10.10;9.30;;;28.50;92.60;;;;;;4974986;28;20450;-64
2021/09/10 10:00:37;;;;;;;9.73;8.93;;;29.10;91.60;;;;;;4974950;28;20423;-64
2021/09/10 10:03:05;;;;;;;8.97;8.17;;;29.50;90.40;;;;;;4975480;28;20419;-63
2021/09/10 10:05:40;;;;;;;10.87;10.17;;;29.70;90.40;;;;;;4974918;28;20556;-64
2021/09/10 10:08:09;;;;;;;9.70;8.77;;;29.40;90.40;;;;;;4974766;28;20979;-64
2021/09/10 10:10:43;;;;;;;9.17;8.27;;;29.20;90.30;;;;;;4974529;28;20424;-64
2021/09/10 10:13:17;;;;;;;9.27;8.37;;;29.00;90.90;;;;;;4974841;28;20420;-63
2021/09/10 10:15:45;;;;;;;9.97;9.07;;;29.30;90.20;;;;;;4974776;28;20952;-65
2021/09/10 10:18:11;;;;;;;9.40;8.80;;;31.00;87.30;;;;;;4974314;28;20459;-64
2021/09/10 10:20:46;;;;;;;9.27;8.57;;;31.60;83.80;;;;;;5012793;23;20552;-66
2021/09/10 10:23:53;;;;;;;9.27;8.67;;;31.80;82.30;;;;;;4993949;28;20513;-67
2021/09/10 10:26:32;;;;;;;9.60;8.70;;;32.60;80.80;;;;;;4993532;28;20403;-65
2021/09/10 10:29:14;;;;;;;9.00;8.40;;;32.10;79.40;;;;;;4993751;28;20492;-65
2021/09/10 10:32:00;;;;;;;8.63;7.73;;;32.30;78.40;;;;;;4993701;28;20429;-65
2021/09/10 10:34:27;;;;;;;8.83;8.13;;;32.50;74.90;;;;;;4993758;28;20415;-64
2021/09/10 10:36:52;;;;;;;8.40;7.70;;;31.40;77.10;;;;;;4993830;28;20419;-64
2021/09/10 10:39:27;;;;;;;8.07;7.47;;;31.60;78.50;;;;;;4993359;28;20441;-64
2021/09/10 10:41:58;;;;;;;9.13;8.53;;;33.10;75.50;;;;;;4993685;28;20278;-65
2021/09/10 10:44:35;;;;;;;8.37;7.77;;;34.10;70.80;;;;;;4993610;28;20434;-65
2021/09/10 10:47:05;;;;;;;8.70;8.20;;;34.80;68.00;;;;;;4993489;28;21042;-65
2021/09/10 10:49:32;;;;;;;9.27;8.47;;;34.00;66.00;;;;;;4993077;28;20529;-65
2021/09/10 10:51:57;;;;;;;10.13;9.40;;;33.70;68.70;;;;;;4993524;28;20415;-64
2021/09/10 10:54:30;;;;;;;8.73;8.13;;;34.20;66.80;;;;;;4993497;28;20417;-65
2021/09/10 10:56:59;;;;;;;8.60;7.90;;;34.20;64.60;;;;;;4993480;28;20164;-65
2021/09/10 10:59:26;;;;;;;9.00;8.40;;;33.60;66.00;;;;;;4993240;28;20439;-64
2021/09/10 11:02:17;;;;;;;8.50;7.90;;;33.10;65.30;;;;;;4993305;28;20425;-65
2021/09/10 11:04:52;;;;;;;9.17;8.47;;;34.00;62.80;;;;;;4993234;28;20441;-65
2021/09/10 11:07:23;;;;;;;9.33;8.63;;;34.70;62.90;;;;;;4993244;28;20465;-65
2021/09/10 11:10:11;;;;;;;9.43;8.60;;;34.20;61.20;;;;;;4992599;28;21014;-64
2021/09/10 11:12:38;;;;;;;9.47;8.80;;;32.50;63.90;;;;;;4993337;28;20419;-64
2021/09/10 11:15:23;;;;;;;8.20;7.53;;;31.60;67.00;;;;;;4991819;28;20425;-64
2021/09/10 11:17:55;;;;;;;8.70;8.10;;;31.30;68.20;;;;;;4992991;28;20916;-65
2021/09/10 11:20:48;;;;;;;9.20;8.50;;;32.70;67.00;;;;;;4992503;28;21016;-65
2021/09/10 11:23:28;;;;;;;8.00;7.30;;;33.30;65.20;;;;;;4987353;28;20470;-65
2021/09/10 11:25:57;;;;;;;8.33;7.73;;;34.60;62.50;;;;;;4993002;28;20435;-65
2021/09/10 11:28:28;;;;;;;9.00;8.50;;;35.50;60.10;;;;;;4991823;28;20462;-63
2021/09/10 11:30:54;;;;;;;7.90;7.33;;;35.30;59.60;;;;;;4986235;28;20423;-64
2021/09/10 11:33:21;;;;;;;8.70;8.07;;;35.20;59.80;;;;;;4983020;28;20802;-65
2021/09/10 11:35:48;;;;;;;8.37;7.87;;;33.80;61.30;;;;;;4986769;28;20446;-64
2021/09/10 11:38:21;;;;;;;8.40;7.80;;;32.70;63.60;;;;;;4985985;28;20513;-63
2021/09/10 11:40:50;;;;;;;9.07;8.17;;;32.70;64.80;;;;;;4986557;28;20446;-64
2021/09/10 11:43:29;;;;;;;9.30;8.60;;;31.80;65.60;;;;;;4983095;28;21865;-64
2021/09/10 11:45:57;;;;;;;8.73;8.10;;;31.30;67.70;;;;;;4986445;28;20931;-64
2021/09/10 11:48:34;;;;;;;9.10;8.37;;;32.30;66.80;;;;;;4986128;28;20474;-65
2021/09/10 11:51:05;;;;;;;9.30;8.63;;;33.40;63.00;;;;;;4986868;28;20426;-65
2021/09/10 11:53:34;;;;;;;8.37;7.80;;;32.90;62.20;;;;;;4983481;28;20442;-64
2021/09/10 11:56:07;;;;;;;9.30;8.70;;;32.00;65.80;;;;;;4986794;28;20450;-63
2021/09/10 11:58:43;;;;;;;9.70;8.87;;;31.10;67.80;;;;;;4985163;28;20446;-63
2021/09/10 12:01:20;;;;;;;9.53;8.83;;;31.60;67.30;;;;;;4986595;28;20438;-64
2021/09/10 12:04:03;;;;;;;9.23;8.63;;;32.20;66.50;;;;;;4985350;28;20479;-64
2021/09/10 12:06:44;;;;;;;9.30;8.63;;;32.70;65.20;;;;;;4986872;28;20442;-65
2021/09/10 12:09:23;;;;;;;9.90;9.20;;;32.00;67.40;;;;;;4984268;28;21022;-63
2021/09/10 12:12:00;;;;;;;11.83;10.77;;;30.60;68.70;;;;;;4983632;28;20438;-63
2021/09/10 12:14:30;;;;;;;9.67;8.97;;;29.60;72.30;;;;;;4986118;28;20430;-64
2021/09/10 12:17:10;;;;;;;9.53;8.73;;;29.30;72.80;;;;;;4986384;28;20558;-64
2021/09/10 12:20:06;;;;;;;9.30;8.80;;;29.20;73.00;;;;;;4985410;28;20477;-64
2021/09/10 12:22:48;;;;;;;9.23;8.27;;;30.00;71.80;;;;;;4982279;28;20541;-65
2021/09/10 12:25:57;;;;;;;8.43;7.87;;;31.70;69.80;;;;;;4985454;28;20441;-65
2021/09/10 12:28:27;;;;;;;9.07;8.47;;;34.80;63.70;;;;;;4952277;28;20557;-65
2021/09/10 12:31:05;;;;;;;8.93;8.30;;;36.10;60.40;;;;;;4986356;28;20506;-65
2021/09/10 12:33:32;;;;;;;9.67;9.00;;;37.60;58.20;;;;;;4982969;28;20933;-65
2021/09/10 12:36:06;;;;;;;9.30;8.60;;;38.90;56.20;;;;;;4988892;28;20496;-66
2021/09/10 12:38:43;;;;;;;8.80;7.87;;;37.60;55.20;;;;;;4990003;28;20426;-64